sensor_id;sensor_type;location;lat;lon;timestamp;P1;durP1;ratioP1;P2;durP2;ratioP2
70075;SDS011;63241;51.056;3.698;2022-09-09T00:02:08;8.30;;;2.92;;
70075;SDS011;63241;51.056;3.698;2022-09-09T00:11:29;12.95;;;3.02;;
70075;SDS011;63241;51.056;3.698;2022-09-09T00:23:38;8.13;;;2.50;;
70075;SDS011;63241;51.056;3.698;2022-09-09T00:32:16;6.83;;;2.37;;
70075;SDS011;63241;51.056;3.698;2022-09-09T00:38:13;9.95;;;2.98;;
70075;SDS011;63241;51.056;3.698;2022-09-09T00:44:32;10.32;;;2.42;;
70075;SDS011;63241;51.056;3.698;2022-09-09T00:53:38;9.38;;;2.60;;
70075;SDS011;63241;51.056;3.698;2022-09-09T01:06:12;11.18;;;2.50;;
70075;SDS011;63241;51.056;3.698;2022-09-09T01:09:23;9.45;;;2.20;;
70075;SDS011;63241;51.056;3.698;2022-09-09T01:12:30;8.43;;;2.45;;
70075;SDS011;63241;51.056;3.698;2022-09-09T01:15:32;11.22;;;2.83;;
70075;SDS011;63241;51.056;3.698;2022-09-09T01:18:23;7.42;;;2.12;;
70075;SDS011;63241;51.056;3.698;2022-09-09T01:21:16;8.25;;;2.02;;
70075;SDS011;63241;51.056;3.698;2022-09-09T01:27:18;10.63;;;2.10;;
70075;SDS011;63241;51.056;3.698;2022-09-09T01:30:21;8.43;;;2.20;;
70075;SDS011;63241;51.056;3.698;2022-09-09T01:33:20;11.63;;;2.00;;
70075;SDS011;63241;51.056;3.698;2022-09-09T01:36:11;7.03;;;2.02;;
70075;SDS011;63241;51.056;3.698;2022-09-09T01:39:17;9.10;;;2.25;;
70075;SDS011;63241;51.056;3.698;2022-09-09T01:42:06;8.85;;;2.15;;
70075;SDS011;63241;51.056;3.698;2022-09-09T01:44:56;8.73;;;1.90;;
70075;SDS011;63241;51.056;3.698;2022-09-09T01:47:43;8.40;;;2.12;;
70075;SDS011;63241;51.056;3.698;2022-09-09T01:50:36;9.13;;;2.02;;
70075;SDS011;63241;51.056;3.698;2022-09-09T01:53:44;4.33;;;1.95;;
70075;SDS011;63241;51.056;3.698;2022-09-09T02:00:04;4.65;;;1.80;;
70075;SDS011;63241;51.056;3.698;2022-09-09T02:03:00;7.60;;;2.35;;
70075;SDS011;63241;51.056;3.698;2022-09-09T02:05:50;11.12;;;2.80;;
70075;SDS011;63241;51.056;3.698;2022-09-09T02:08:55;6.30;;;2.20;;
70075;SDS011;63241;51.056;3.698;2022-09-09T02:11:43;7.22;;;2.30;;
70075;SDS011;63241;51.056;3.698;2022-09-09T02:14:36;11.22;;;2.47;;
70075;SDS011;63241;51.056;3.698;2022-09-09T02:17:26;17.75;;;2.77;;
70075;SDS011;63241;51.056;3.698;2022-09-09T02:20:16;9.00;;;2.50;;
70075;SDS011;63241;51.056;3.698;2022-09-09T02:23:06;9.30;;;2.10;;
70075;SDS011;63241;51.056;3.698;2022-09-09T02:25:56;8.73;;;2.25;;
70075;SDS011;63241;51.056;3.698;2022-09-09T02:28:48;14.07;;;3.15;;
70075;SDS011;63241;51.056;3.698;2022-09-09T02:31:16;7.12;;;2.60;;
70075;SDS011;63241;51.056;3.698;2022-09-09T02:34:06;8.73;;;2.60;;
70075;SDS011;63241;51.056;3.698;2022-09-09T02:36:55;14.80;;;3.25;;
70075;SDS011;63241;51.056;3.698;2022-09-09T02:39:45;11.38;;;3.30;;
70075;SDS011;63241;51.056;3.698;2022-09-09T02:45:43;14.78;;;3.62;;
70075;SDS011;63241;51.056;3.698;2022-09-09T02:51:54;13.65;;;3.10;;
70075;SDS011;63241;51.056;3.698;2022-09-09T02:54:49;13.45;;;2.52;;
70075;SDS011;63241;51.056;3.698;2022-09-09T02:57:40;18.30;;;3.67;;
70075;SDS011;63241;51.056;3.698;2022-09-09T03:00:29;12.55;;;3.15;;
70075;SDS011;63241;51.056;3.698;2022-09-09T03:03:16;13.05;;;2.65;;
70075;SDS011;63241;51.056;3.698;2022-09-09T03:06:04;15.30;;;2.90;;
70075;SDS011;63241;51.056;3.698;2022-09-09T03:08:51;15.50;;;3.00;;
70075;SDS011;63241;51.056;3.698;2022-09-09T03:11:40;13.83;;;3.65;;
70075;SDS011;63241;51.056;3.698;2022-09-09T03:14:09;15.55;;;3.27;;
70075;SDS011;63241;51.056;3.698;2022-09-09T03:16:57;18.85;;;3.27;;
70075;SDS011;63241;51.056;3.698;2022-09-09T03:19:45;21.25;;;3.95;;
70075;SDS011;63241;51.056;3.698;2022-09-09T03:22:33;17.23;;;2.77;;
70075;SDS011;63241;51.056;3.698;2022-09-09T03:25:21;12.50;;;2.95;;
70075;SDS011;63241;51.056;3.698;2022-09-09T03:28:10;17.48;;;3.20;;
70075;SDS011;63241;51.056;3.698;2022-09-09T03:31:01;13.25;;;2.98;;
70075;SDS011;63241;51.056;3.698;2022-09-09T03:33:50;15.63;;;2.83;;
70075;SDS011;63241;51.056;3.698;2022-09-09T03:36:40;15.43;;;3.42;;
70075;SDS011;63241;51.056;3.698;2022-09-09T03:39:28;19.75;;;3.33;;
70075;SDS011;63241;51.056;3.698;2022-09-09T03:42:15;17.95;;;3.65;;
70075;SDS011;63241;51.056;3.698;2022-09-09T03:45:04;14.98;;;2.80;;
70075;SDS011;63241;51.056;3.698;2022-09-09T03:47:53;14.18;;;2.83;;
70075;SDS011;63241;51.056;3.698;2022-09-09T03:50:45;18.00;;;4.05;;
70075;SDS011;63241;51.056;3.698;2022-09-09T03:53:34;16.00;;;3.40;;
70075;SDS011;63241;51.056;3.698;2022-09-09T03:59:11;15.55;;;4.15;;
70075;SDS011;63241;51.056;3.698;2022-09-09T04:01:59;17.55;;;3.37;;
70075;SDS011;63241;51.056;3.698;2022-09-09T04:04:49;12.45;;;3.05;;
70075;SDS011;63241;51.056;3.698;2022-09-09T04:07:37;17.23;;;3.27;;
70075;SDS011;63241;51.056;3.698;2022-09-09T04:10:28;15.72;;;3.45;;
70075;SDS011;63241;51.056;3.698;2022-09-09T04:13:15;19.52;;;3.67;;
70075;SDS011;63241;51.056;3.698;2022-09-09T04:16:04;15.38;;;3.22;;
70075;SDS011;63241;51.056;3.698;2022-09-09T04:18:53;13.43;;;3.00;;
70075;SDS011;63241;51.056;3.698;2022-09-09T04:21:41;21.00;;;3.60;;
70075;SDS011;63241;51.056;3.698;2022-09-09T04:24:28;14.70;;;2.95;;
70075;SDS011;63241;51.056;3.698;2022-09-09T04:26:56;19.42;;;3.95;;
70075;SDS011;63241;51.056;3.698;2022-09-09T04:29:44;23.30;;;3.92;;
70075;SDS011;63241;51.056;3.698;2022-09-09T04:32:35;17.07;;;3.75;;
70075;SDS011;63241;51.056;3.698;2022-09-09T04:35:23;12.82;;;3.12;;
70075;SDS011;63241;51.056;3.698;2022-09-09T04:38:11;18.80;;;3.10;;
70075;SDS011;63241;51.056;3.698;2022-09-09T04:44:40;12.85;;;3.47;;
70075;SDS011;63241;51.056;3.698;2022-09-09T04:47:28;17.15;;;3.58;;
70075;SDS011;63241;51.056;3.698;2022-09-09T04:49:55;13.55;;;3.12;;
70075;SDS011;63241;51.056;3.698;2022-09-09T04:52:45;14.83;;;3.45;;
70075;SDS011;63241;51.056;3.698;2022-09-09T04:55:33;15.15;;;3.67;;
70075;SDS011;63241;51.056;3.698;2022-09-09T04:58:22;14.75;;;3.67;;
70075;SDS011;63241;51.056;3.698;2022-09-09T05:01:18;19.30;;;3.52;;
70075;SDS011;63241;51.056;3.698;2022-09-09T05:04:06;15.03;;;3.90;;
70075;SDS011;63241;51.056;3.698;2022-09-09T05:06:54;18.25;;;4.33;;
70075;SDS011;63241;51.056;3.698;2022-09-09T05:09:22;16.65;;;3.30;;
70075;SDS011;63241;51.056;3.698;2022-09-09T05:12:10;14.28;;;3.17;;
70075;SDS011;63241;51.056;3.698;2022-09-09T05:15:07;17.23;;;3.72;;
70075;SDS011;63241;51.056;3.698;2022-09-09T05:17:56;16.25;;;4.05;;
70075;SDS011;63241;51.056;3.698;2022-09-09T05:20:46;15.30;;;3.80;;
70075;SDS011;63241;51.056;3.698;2022-09-09T05:23:35;21.33;;;3.90;;
70075;SDS011;63241;51.056;3.698;2022-09-09T05:26:24;22.37;;;4.20;;
70075;SDS011;63241;51.056;3.698;2022-09-09T05:29:12;17.60;;;3.98;;
70075;SDS011;63241;51.056;3.698;2022-09-09T05:32:01;22.02;;;4.22;;
70075;SDS011;63241;51.056;3.698;2022-09-09T05:34:52;20.65;;;4.22;;
70075;SDS011;63241;51.056;3.698;2022-09-09T05:37:40;20.35;;;4.10;;
70075;SDS011;63241;51.056;3.698;2022-09-09T05:40:08;21.70;;;4.08;;
70075;SDS011;63241;51.056;3.698;2022-09-09T05:42:59;23.67;;;4.00;;
70075;SDS011;63241;51.056;3.698;2022-09-09T05:45:47;20.40;;;4.45;;
70075;SDS011;63241;51.056;3.698;2022-09-09T05:48:36;14.45;;;4.25;;
70075;SDS011;63241;51.056;3.698;2022-09-09T05:51:26;19.52;;;4.30;;
70075;SDS011;63241;51.056;3.698;2022-09-09T05:54:18;15.18;;;4.22;;
70075;SDS011;63241;51.056;3.698;2022-09-09T05:57:06;14.85;;;3.80;;
70075;SDS011;63241;51.056;3.698;2022-09-09T05:59:55;20.57;;;3.90;;
70075;SDS011;63241;51.056;3.698;2022-09-09T06:02:43;43.20;;;5.40;;
70075;SDS011;63241;51.056;3.698;2022-09-09T06:05:34;19.32;;;4.47;;
70075;SDS011;63241;51.056;3.698;2022-09-09T06:08:03;22.73;;;4.80;;
70075;SDS011;63241;51.056;3.698;2022-09-09T06:10:51;34.03;;;5.10;;
70075;SDS011;63241;51.056;3.698;2022-09-09T06:13:39;42.08;;;5.92;;
70075;SDS011;63241;51.056;3.698;2022-09-09T06:16:27;25.12;;;5.05;;
70075;SDS011;63241;51.056;3.698;2022-09-09T06:19:19;54.95;;;7.03;;
70075;SDS011;63241;51.056;3.698;2022-09-09T06:22:07;24.98;;;4.85;;
70075;SDS011;63241;51.056;3.698;2022-09-09T06:24:55;27.73;;;5.50;;
70075;SDS011;63241;51.056;3.698;2022-09-09T06:27:47;24.37;;;4.90;;
70075;SDS011;63241;51.056;3.698;2022-09-09T06:30:37;23.45;;;5.55;;
70075;SDS011;63241;51.056;3.698;2022-09-09T06:33:26;17.90;;;4.72;;
70075;SDS011;63241;51.056;3.698;2022-09-09T06:36:17;24.10;;;5.17;;
70075;SDS011;63241;51.056;3.698;2022-09-09T06:39:07;24.87;;;5.72;;
70075;SDS011;63241;51.056;3.698;2022-09-09T06:41:56;22.27;;;5.00;;
70075;SDS011;63241;51.056;3.698;2022-09-09T06:44:43;29.45;;;5.10;;
70075;SDS011;63241;51.056;3.698;2022-09-09T06:47:32;20.12;;;5.03;;
70075;SDS011;63241;51.056;3.698;2022-09-09T06:50:41;26.40;;;5.45;;
70075;SDS011;63241;51.056;3.698;2022-09-09T06:53:32;24.20;;;4.40;;
70075;SDS011;63241;51.056;3.698;2022-09-09T06:56:25;22.65;;;5.17;;
70075;SDS011;63241;51.056;3.698;2022-09-09T06:59:14;19.05;;;4.28;;
70075;SDS011;63241;51.056;3.698;2022-09-09T07:02:02;21.15;;;4.60;;
70075;SDS011;63241;51.056;3.698;2022-09-09T07:04:51;19.37;;;3.95;;
70075;SDS011;63241;51.056;3.698;2022-09-09T07:07:39;13.30;;;3.22;;
70075;SDS011;63241;51.056;3.698;2022-09-09T07:10:27;18.30;;;3.47;;
70075;SDS011;63241;51.056;3.698;2022-09-09T07:13:15;12.15;;;2.80;;
70075;SDS011;63241;51.056;3.698;2022-09-09T07:16:04;16.25;;;3.27;;
70075;SDS011;63241;51.056;3.698;2022-09-09T07:18:53;17.20;;;3.50;;
70075;SDS011;63241;51.056;3.698;2022-09-09T07:21:23;18.17;;;2.83;;
70075;SDS011;63241;51.056;3.698;2022-09-09T07:24:14;15.88;;;4.03;;
70075;SDS011;63241;51.056;3.698;2022-09-09T07:27:01;17.60;;;3.20;;
70075;SDS011;63241;51.056;3.698;2022-09-09T07:29:48;12.73;;;3.00;;
70075;SDS011;63241;51.056;3.698;2022-09-09T07:32:36;15.30;;;3.42;;
70075;SDS011;63241;51.056;3.698;2022-09-09T07:35:24;10.65;;;3.17;;
70075;SDS011;63241;51.056;3.698;2022-09-09T07:38:12;18.67;;;3.92;;
70075;SDS011;63241;51.056;3.698;2022-09-09T07:41:04;22.75;;;3.35;;
70075;SDS011;63241;51.056;3.698;2022-09-09T07:43:57;14.28;;;2.95;;
70075;SDS011;63241;51.056;3.698;2022-09-09T07:46:28;17.85;;;3.30;;
70075;SDS011;63241;51.056;3.698;2022-09-09T07:49:16;16.00;;;2.77;;
70075;SDS011;63241;51.056;3.698;2022-09-09T07:52:04;13.50;;;2.35;;
70075;SDS011;63241;51.056;3.698;2022-09-09T07:54:52;12.70;;;3.45;;
70075;SDS011;63241;51.056;3.698;2022-09-09T07:57:40;11.70;;;3.20;;
70075;SDS011;63241;51.056;3.698;2022-09-09T08:00:28;17.32;;;3.45;;
70075;SDS011;63241;51.056;3.698;2022-09-09T08:03:16;17.05;;;3.77;;
70075;SDS011;63241;51.056;3.698;2022-09-09T08:06:07;18.48;;;3.55;;
70075;SDS011;63241;51.056;3.698;2022-09-09T08:08:56;16.60;;;3.65;;
70075;SDS011;63241;51.056;3.698;2022-09-09T08:11:24;23.02;;;4.05;;
70075;SDS011;63241;51.056;3.698;2022-09-09T08:14:19;16.12;;;3.83;;
70075;SDS011;63241;51.056;3.698;2022-09-09T08:17:07;13.68;;;3.05;;
70075;SDS011;63241;51.056;3.698;2022-09-09T08:19:54;16.37;;;3.62;;
70075;SDS011;63241;51.056;3.698;2022-09-09T08:22:42;15.58;;;3.45;;
70075;SDS011;63241;51.056;3.698;2022-09-09T08:25:29;15.53;;;3.58;;
70075;SDS011;63241;51.056;3.698;2022-09-09T08:28:17;15.55;;;3.40;;
70075;SDS011;63241;51.056;3.698;2022-09-09T08:31:07;21.52;;;3.95;;
70075;SDS011;63241;51.056;3.698;2022-09-09T08:33:33;18.52;;;3.65;;
70075;SDS011;63241;51.056;3.698;2022-09-09T08:36:23;12.50;;;3.00;;
70075;SDS011;63241;51.056;3.698;2022-09-09T08:39:14;15.40;;;3.57;;
70075;SDS011;63241;51.056;3.698;2022-09-09T08:45:35;10.93;;;3.00;;
70075;SDS011;63241;51.056;3.698;2022-09-09T08:48:43;12.65;;;3.45;;
70075;SDS011;63241;51.056;3.698;2022-09-09T08:51:53;16.85;;;3.52;;
70075;SDS011;63241;51.056;3.698;2022-09-09T08:54:41;12.45;;;3.00;;
70075;SDS011;63241;51.056;3.698;2022-09-09T08:57:29;8.73;;;2.50;;
70075;SDS011;63241;51.056;3.698;2022-09-09T09:00:20;11.80;;;2.67;;
70075;SDS011;63241;51.056;3.698;2022-09-09T09:06:25;11.78;;;2.62;;
70075;SDS011;63241;51.056;3.698;2022-09-09T09:09:15;12.28;;;3.35;;
70075;SDS011;63241;51.056;3.698;2022-09-09T09:12:27;14.33;;;3.00;;
70075;SDS011;63241;51.056;3.698;2022-09-09T09:15:36;9.50;;;2.83;;
70075;SDS011;63241;51.056;3.698;2022-09-09T09:18:07;9.00;;;2.75;;
70075;SDS011;63241;51.056;3.698;2022-09-09T09:23:43;12.55;;;2.77;;
70075;SDS011;63241;51.056;3.698;2022-09-09T09:26:35;9.28;;;2.35;;
70075;SDS011;63241;51.056;3.698;2022-09-09T09:29:24;10.93;;;3.10;;
70075;SDS011;63241;51.056;3.698;2022-09-09T09:32:14;10.25;;;2.77;;
70075;SDS011;63241;51.056;3.698;2022-09-09T09:34:51;11.10;;;2.80;;
70075;SDS011;63241;51.056;3.698;2022-09-09T09:37:44;5.67;;;2.00;;
70075;SDS011;63241;51.056;3.698;2022-09-09T09:40:32;10.25;;;2.65;;
70075;SDS011;63241;51.056;3.698;2022-09-09T09:43:21;7.40;;;2.25;;
70075;SDS011;63241;51.056;3.698;2022-09-09T09:46:21;8.68;;;2.35;;
70075;SDS011;63241;51.056;3.698;2022-09-09T09:49:11;5.80;;;2.00;;
70075;SDS011;63241;51.056;3.698;2022-09-09T09:52:02;7.97;;;2.33;;
70075;SDS011;63241;51.056;3.698;2022-09-09T09:54:52;7.08;;;2.20;;
70075;SDS011;63241;51.056;3.698;2022-09-09T09:57:28;9.03;;;2.12;;
70075;SDS011;63241;51.056;3.698;2022-09-09T10:00:17;8.18;;;2.47;;
70075;SDS011;63241;51.056;3.698;2022-09-09T10:03:31;7.50;;;2.02;;
70075;SDS011;63241;51.056;3.698;2022-09-09T10:09:30;8.80;;;2.58;;
70075;SDS011;63241;51.056;3.698;2022-09-09T10:34:20;4.58;;;1.62;;
70075;SDS011;63241;51.056;3.698;2022-09-09T10:37:07;6.72;;;1.98;;
70075;SDS011;63241;51.056;3.698;2022-09-09T10:40:02;10.78;;;2.10;;
70075;SDS011;63241;51.056;3.698;2022-09-09T10:46:40;7.85;;;1.75;;
70075;SDS011;63241;51.056;3.698;2022-09-09T10:55:45;7.20;;;2.25;;
70075;SDS011;63241;51.056;3.698;2022-09-09T10:58:44;7.65;;;1.77;;
70075;SDS011;63241;51.056;3.698;2022-09-09T11:04:45;5.67;;;1.47;;
70075;SDS011;63241;51.056;3.698;2022-09-09T11:07:55;4.47;;;1.67;;
70075;SDS011;63241;51.056;3.698;2022-09-09T11:14:37;4.12;;;1.40;;
70075;SDS011;63241;51.056;3.698;2022-09-09T11:17:23;5.85;;;1.20;;
70075;SDS011;63241;51.056;3.698;2022-09-09T11:20:36;4.00;;;1.10;;
70075;SDS011;63241;51.056;3.698;2022-09-09T11:23:37;4.72;;;1.57;;
70075;SDS011;63241;51.056;3.698;2022-09-09T11:26:32;4.42;;;1.67;;
70075;SDS011;63241;51.056;3.698;2022-09-09T11:29:30;2.95;;;1.32;;
70075;SDS011;63241;51.056;3.698;2022-09-09T11:35:51;6.45;;;1.67;;
70075;SDS011;63241;51.056;3.698;2022-09-09T11:38:50;6.53;;;1.22;;
70075;SDS011;63241;51.056;3.698;2022-09-09T11:41:42;3.42;;;1.17;;
70075;SDS011;63241;51.056;3.698;2022-09-09T11:44:33;5.85;;;1.20;;
70075;SDS011;63241;51.056;3.698;2022-09-09T11:47:02;3.08;;;1.32;;
70075;SDS011;63241;51.056;3.698;2022-09-09T11:49:52;3.15;;;1.20;;
70075;SDS011;63241;51.056;3.698;2022-09-09T11:52:43;2.90;;;1.10;;
70075;SDS011;63241;51.056;3.698;2022-09-09T11:55:34;4.37;;;1.32;;
70075;SDS011;63241;51.056;3.698;2022-09-09T11:58:23;3.52;;;1.22;;
70075;SDS011;63241;51.056;3.698;2022-09-09T12:04:47;4.90;;;1.50;;
70075;SDS011;63241;51.056;3.698;2022-09-09T12:07:51;6.80;;;1.55;;
70075;SDS011;63241;51.056;3.698;2022-09-09T12:10:56;6.03;;;1.60;;
70075;SDS011;63241;51.056;3.698;2022-09-09T12:13:52;4.47;;;1.30;;
70075;SDS011;63241;51.056;3.698;2022-09-09T12:16:44;5.75;;;1.50;;
70075;SDS011;63241;51.056;3.698;2022-09-09T12:19:34;5.35;;;1.67;;
70075;SDS011;63241;51.056;3.698;2022-09-09T12:25:41;3.02;;;1.20;;
70075;SDS011;63241;51.056;3.698;2022-09-09T12:34:58;3.70;;;1.40;;
70075;SDS011;63241;51.056;3.698;2022-09-09T12:37:50;4.80;;;1.80;;
70075;SDS011;63241;51.056;3.698;2022-09-09T12:40:42;6.70;;;1.30;;
70075;SDS011;63241;51.056;3.698;2022-09-09T12:43:50;4.50;;;1.27;;
70075;SDS011;63241;51.056;3.698;2022-09-09T12:46:44;4.95;;;1.40;;
70075;SDS011;63241;51.056;3.698;2022-09-09T12:49:34;6.37;;;1.75;;
70075;SDS011;63241;51.056;3.698;2022-09-09T12:52:32;5.53;;;1.50;;
70075;SDS011;63241;51.056;3.698;2022-09-09T12:55:21;3.62;;;1.30;;
70075;SDS011;63241;51.056;3.698;2022-09-09T12:58:13;5.90;;;1.45;;
70075;SDS011;63241;51.056;3.698;2022-09-09T13:01:04;3.77;;;1.57;;
70075;SDS011;63241;51.056;3.698;2022-09-09T13:04:02;7.17;;;1.50;;
70075;SDS011;63241;51.056;3.698;2022-09-09T13:06:53;4.78;;;1.80;;
70075;SDS011;63241;51.056;3.698;2022-09-09T13:09:44;6.20;;;1.77;;
70075;SDS011;63241;51.056;3.698;2022-09-09T13:12:36;5.92;;;1.70;;
70075;SDS011;63241;51.056;3.698;2022-09-09T13:15:28;5.37;;;2.05;;
70075;SDS011;63241;51.056;3.698;2022-09-09T13:18:16;6.53;;;1.95;;
70075;SDS011;63241;51.056;3.698;2022-09-09T13:21:07;4.60;;;1.77;;
70075;SDS011;63241;51.056;3.698;2022-09-09T13:23:54;6.65;;;1.50;;
70075;SDS011;63241;51.056;3.698;2022-09-09T13:26:41;5.60;;;1.22;;
70075;SDS011;63241;51.056;3.698;2022-09-09T13:29:29;4.42;;;1.15;;
70075;SDS011;63241;51.056;3.698;2022-09-09T13:32:17;3.72;;;1.22;;
70075;SDS011;63241;51.056;3.698;2022-09-09T13:35:04;5.55;;;1.72;;
70075;SDS011;63241;51.056;3.698;2022-09-09T13:37:59;7.30;;;1.70;;
70075;SDS011;63241;51.056;3.698;2022-09-09T13:40:20;4.60;;;1.60;;
70075;SDS011;63241;51.056;3.698;2022-09-09T13:43:14;3.75;;;1.60;;
70075;SDS011;63241;51.056;3.698;2022-09-09T13:46:04;7.30;;;1.40;;
70075;SDS011;63241;51.056;3.698;2022-09-09T13:48:57;3.62;;;1.32;;
70075;SDS011;63241;51.056;3.698;2022-09-09T13:51:50;8.70;;;1.40;;
70075;SDS011;63241;51.056;3.698;2022-09-09T13:54:38;6.97;;;1.30;;
70075;SDS011;63241;51.056;3.698;2022-09-09T13:57:27;4.70;;;1.50;;
70075;SDS011;63241;51.056;3.698;2022-09-09T14:00:16;5.35;;;1.32;;
70075;SDS011;63241;51.056;3.698;2022-09-09T14:03:04;4.30;;;1.22;;
70075;SDS011;63241;51.056;3.698;2022-09-09T14:06:12;4.78;;;1.30;;
70075;SDS011;63241;51.056;3.698;2022-09-09T14:09:00;4.90;;;1.30;;
70075;SDS011;63241;51.056;3.698;2022-09-09T14:11:48;2.33;;;1.17;;
70075;SDS011;63241;51.056;3.698;2022-09-09T14:14:37;6.67;;;1.20;;
70075;SDS011;63241;51.056;3.698;2022-09-09T14:17:29;3.87;;;1.40;;
70075;SDS011;63241;51.056;3.698;2022-09-09T14:20:21;3.85;;;1.40;;
70075;SDS011;63241;51.056;3.698;2022-09-09T14:23:13;4.08;;;1.37;;
70075;SDS011;63241;51.056;3.698;2022-09-09T14:26:01;5.15;;;1.62;;
70075;SDS011;63241;51.056;3.698;2022-09-09T14:28:49;5.33;;;1.27;;
70075;SDS011;63241;51.056;3.698;2022-09-09T14:31:38;4.40;;;1.50;;
70075;SDS011;63241;51.056;3.698;2022-09-09T14:34:04;4.62;;;1.75;;
70075;SDS011;63241;51.056;3.698;2022-09-09T14:36:51;2.72;;;1.20;;
70075;SDS011;63241;51.056;3.698;2022-09-09T14:39:41;7.00;;;1.40;;
70075;SDS011;63241;51.056;3.698;2022-09-09T14:42:31;6.35;;;1.40;;
70075;SDS011;63241;51.056;3.698;2022-09-09T14:45:20;3.55;;;1.30;;
70075;SDS011;63241;51.056;3.698;2022-09-09T14:48:07;7.70;;;1.77;;
70075;SDS011;63241;51.056;3.698;2022-09-09T14:50:54;6.15;;;1.40;;
70075;SDS011;63241;51.056;3.698;2022-09-09T14:53:42;5.05;;;1.65;;
70075;SDS011;63241;51.056;3.698;2022-09-09T14:56:12;1.72;;;0.90;;
70075;SDS011;63241;51.056;3.698;2022-09-09T14:59:04;4.03;;;1.57;;
70075;SDS011;63241;51.056;3.698;2022-09-09T15:01:55;2.92;;;1.07;;
70075;SDS011;63241;51.056;3.698;2022-09-09T15:04:44;3.70;;;1.40;;
70075;SDS011;63241;51.056;3.698;2022-09-09T15:07:40;4.08;;;1.60;;
70075;SDS011;63241;51.056;3.698;2022-09-09T15:10:28;3.47;;;1.47;;
70075;SDS011;63241;51.056;3.698;2022-09-09T15:13:16;4.35;;;2.00;;
70075;SDS011;63241;51.056;3.698;2022-09-09T15:18:56;6.83;;;1.80;;
70075;SDS011;63241;51.056;3.698;2022-09-09T15:22:04;6.15;;;1.45;;
70075;SDS011;63241;51.056;3.698;2022-09-09T15:24:52;5.53;;;1.45;;
70075;SDS011;63241;51.056;3.698;2022-09-09T15:27:39;6.10;;;1.55;;
70075;SDS011;63241;51.056;3.698;2022-09-09T15:30:27;6.97;;;1.90;;
70075;SDS011;63241;51.056;3.698;2022-09-09T15:33:15;3.65;;;1.20;;
70075;SDS011;63241;51.056;3.698;2022-09-09T15:39:09;4.30;;;1.35;;
70075;SDS011;63241;51.056;3.698;2022-09-09T15:41:57;4.47;;;1.20;;
70075;SDS011;63241;51.056;3.698;2022-09-09T15:44:24;4.08;;;1.55;;
70075;SDS011;63241;51.056;3.698;2022-09-09T15:47:12;4.75;;;1.40;;
70075;SDS011;63241;51.056;3.698;2022-09-09T15:50:00;4.03;;;1.45;;
70075;SDS011;63241;51.056;3.698;2022-09-09T15:52:46;4.78;;;1.60;;
70075;SDS011;63241;51.056;3.698;2022-09-09T15:55:35;9.93;;;1.50;;
70075;SDS011;63241;51.056;3.698;2022-09-09T15:58:24;5.97;;;2.00;;
70075;SDS011;63241;51.056;3.698;2022-09-09T16:01:17;8.28;;;1.90;;
70075;SDS011;63241;51.056;3.698;2022-09-09T16:04:13;4.50;;;1.80;;
70075;SDS011;63241;51.056;3.698;2022-09-09T16:07:06;7.90;;;2.15;;
70075;SDS011;63241;51.056;3.698;2022-09-09T16:09:54;4.33;;;2.10;;
70075;SDS011;63241;51.056;3.698;2022-09-09T16:12:41;4.25;;;1.87;;
70075;SDS011;63241;51.056;3.698;2022-09-09T16:15:29;4.70;;;1.87;;
70075;SDS011;63241;51.056;3.698;2022-09-09T16:18:17;6.87;;;1.67;;
70075;SDS011;63241;51.056;3.698;2022-09-09T16:21:06;5.33;;;1.52;;
70075;SDS011;63241;51.056;3.698;2022-09-09T16:23:36;6.70;;;1.80;;
70075;SDS011;63241;51.056;3.698;2022-09-09T16:26:25;7.00;;;2.10;;
70075;SDS011;63241;51.056;3.698;2022-09-09T16:29:14;11.95;;;2.47;;
70075;SDS011;63241;51.056;3.698;2022-09-09T16:32:04;7.90;;;2.77;;
70075;SDS011;63241;51.056;3.698;2022-09-09T16:34:52;5.53;;;2.33;;
70075;SDS011;63241;51.056;3.698;2022-09-09T16:37:39;6.03;;;2.55;;
70075;SDS011;63241;51.056;3.698;2022-09-09T16:40:28;6.62;;;2.33;;
70075;SDS011;63241;51.056;3.698;2022-09-09T16:43:14;6.00;;;2.77;;
70075;SDS011;63241;51.056;3.698;2022-09-09T16:49:45;6.95;;;2.77;;
70075;SDS011;63241;51.056;3.698;2022-09-09T16:52:32;7.28;;;2.40;;
70075;SDS011;63241;51.056;3.698;2022-09-09T16:55:20;7.28;;;2.60;;
70075;SDS011;63241;51.056;3.698;2022-09-09T16:58:10;10.45;;;2.75;;
70075;SDS011;63241;51.056;3.698;2022-09-09T17:01:00;6.33;;;2.75;;
70075;SDS011;63241;51.056;3.698;2022-09-09T17:03:54;15.48;;;4.53;;
70075;SDS011;63241;51.056;3.698;2022-09-09T17:06:48;22.35;;;6.00;;
70075;SDS011;63241;51.056;3.698;2022-09-09T17:09:36;93.05;;;12.20;;
70075;SDS011;63241;51.056;3.698;2022-09-09T17:12:24;16.27;;;5.00;;
70075;SDS011;63241;51.056;3.698;2022-09-09T17:15:12;16.73;;;5.65;;
70075;SDS011;63241;51.056;3.698;2022-09-09T17:21:08;22.20;;;7.87;;
70075;SDS011;63241;51.056;3.698;2022-09-09T17:23:58;20.92;;;7.78;;
70075;SDS011;63241;51.056;3.698;2022-09-09T17:26:46;31.87;;;12.93;;
70075;SDS011;63241;51.056;3.698;2022-09-09T17:29:34;43.83;;;15.88;;
70075;SDS011;63241;51.056;3.698;2022-09-09T17:32:21;30.68;;;11.97;;
70075;SDS011;63241;51.056;3.698;2022-09-09T17:35:08;27.07;;;7.85;;
70075;SDS011;63241;51.056;3.698;2022-09-09T17:37:56;26.68;;;6.55;;
70075;SDS011;63241;51.056;3.698;2022-09-09T17:40:44;22.42;;;6.58;;
70075;SDS011;63241;51.056;3.698;2022-09-09T17:43:11;23.62;;;5.45;;
70075;SDS011;63241;51.056;3.698;2022-09-09T17:46:14;23.52;;;6.47;;
70075;SDS011;63241;51.056;3.698;2022-09-09T17:51:59;27.70;;;7.72;;
70075;SDS011;63241;51.056;3.698;2022-09-09T17:54:47;29.50;;;6.95;;
70075;SDS011;63241;51.056;3.698;2022-09-09T17:57:34;22.35;;;6.45;;
70075;SDS011;63241;51.056;3.698;2022-09-09T18:00:24;30.43;;;6.47;;
70075;SDS011;63241;51.056;3.698;2022-09-09T18:03:11;28.40;;;6.00;;
70075;SDS011;63241;51.056;3.698;2022-09-09T18:06:04;21.93;;;4.72;;
70075;SDS011;63241;51.056;3.698;2022-09-09T18:08:57;15.83;;;4.95;;
70075;SDS011;63241;51.056;3.698;2022-09-09T18:11:48;18.48;;;4.65;;
70075;SDS011;63241;51.056;3.698;2022-09-09T18:14:39;24.52;;;5.55;;
70075;SDS011;63241;51.056;3.698;2022-09-09T18:17:27;23.27;;;5.65;;
70075;SDS011;63241;51.056;3.698;2022-09-09T18:20:15;18.65;;;4.50;;
70075;SDS011;63241;51.056;3.698;2022-09-09T18:23:03;21.57;;;5.95;;
70075;SDS011;63241;51.056;3.698;2022-09-09T18:25:51;18.30;;;5.30;;
70075;SDS011;63241;51.056;3.698;2022-09-09T18:28:39;19.48;;;5.35;;
70075;SDS011;63241;51.056;3.698;2022-09-09T18:31:29;21.52;;;4.58;;
70075;SDS011;63241;51.056;3.698;2022-09-09T18:34:17;20.92;;;4.65;;
70075;SDS011;63241;51.056;3.698;2022-09-09T18:37:25;26.52;;;5.20;;
70075;SDS011;63241;51.056;3.698;2022-09-09T18:40:13;21.07;;;5.25;;
70075;SDS011;63241;51.056;3.698;2022-09-09T18:43:00;21.62;;;4.67;;
70075;SDS011;63241;51.056;3.698;2022-09-09T18:45:49;17.90;;;3.58;;
70075;SDS011;63241;51.056;3.698;2022-09-09T18:48:36;19.82;;;4.05;;
70075;SDS011;63241;51.056;3.698;2022-09-09T18:51:25;20.25;;;3.65;;
70075;SDS011;63241;51.056;3.698;2022-09-09T18:54:17;26.68;;;4.60;;
70075;SDS011;63241;51.056;3.698;2022-09-09T18:57:09;19.77;;;4.47;;
70075;SDS011;63241;51.056;3.698;2022-09-09T18:59:59;20.15;;;4.30;;
70075;SDS011;63241;51.056;3.698;2022-09-09T19:02:48;21.62;;;4.80;;
70075;SDS011;63241;51.056;3.698;2022-09-09T19:05:41;17.12;;;3.72;;
70075;SDS011;63241;51.056;3.698;2022-09-09T19:08:29;19.98;;;3.60;;
70075;SDS011;63241;51.056;3.698;2022-09-09T19:11:19;17.70;;;3.85;;
70075;SDS011;63241;51.056;3.698;2022-09-09T19:14:09;18.00;;;3.70;;
70075;SDS011;63241;51.056;3.698;2022-09-09T19:16:58;19.05;;;3.75;;
70075;SDS011;63241;51.056;3.698;2022-09-09T19:19:46;16.25;;;3.95;;
70075;SDS011;63241;51.056;3.698;2022-09-09T19:22:35;18.30;;;3.60;;